Time;durP1;ratioP1;P1;durP2;ratioP2;P2;SDS_P1;SDS_P2;PMS_P1;PMS_P2;Temp;Humidity;BMP_temperature;BMP_pressure;BME280_temperature;BME280_humidity;BME280_pressure;Samples;Min_cycle;Max_cycle;Signal;HPM_P1;HPM_P2
2021/03/08 00:01:18;;;;;;;7.55;1.20;;;0.90;99.90;;;;;;5001131;28;20057;-66
2021/03/08 00:03:44;;;;;;;6.80;1.08;;;0.90;99.90;;;;;;4997881;28;20429;-64
2021/03/08 00:06:11;;;;;;;2.22;0.88;;;0.90;99.90;;;;;;5001129;28;20493;-64
2021/03/08 00:08:37;;;;;;;5.85;0.93;;;0.90;99.90;;;;;;5003738;28;20142;-66
2021/03/08 00:11:04;;;;;;;4.55;0.65;;;0.90;99.90;;;;;;5000719;28;20136;-64
2021/03/08 00:13:30;;;;;;;3.80;0.75;;;0.90;99.90;;;;;;4999706;28;20078;-64
2021/03/08 00:15:57;;;;;;;3.75;1.23;;;1.00;99.90;;;;;;5001635;28;20057;-64
2021/03/08 00:18:25;;;;;;;1.95;1.85;;;0.90;99.90;;;;;;5001251;28;20072;-63
2021/03/08 00:20:52;;;;;;;2.78;0.50;;;1.00;99.90;;;;;;5003374;28;20042;-63
2021/03/08 00:23:19;;;;;;;3.30;1.02;;;1.00;99.90;;;;;;5003567;28;20108;-64
2021/03/08 00:25:45;;;;;;;5.18;1.25;;;1.00;99.90;;;;;;5001350;28;20352;-63
2021/03/08 00:28:12;;;;;;;5.00;0.77;;;0.90;99.90;;;;;;5001089;28;20104;-63
2021/03/08 00:30:38;;;;;;;2.40;0.80;;;0.90;99.90;;;;;;5002812;28;20042;-63
2021/03/08 00:33:05;;;;;;;5.13;1.45;;;0.90;99.90;;;;;;4999774;28;20051;-64
2021/03/08 00:35:32;;;;;;;3.83;0.73;;;1.00;99.90;;;;;;5003912;28;20049;-64
2021/03/08 00:37:58;;;;;;;2.90;0.45;;;0.90;99.90;;;;;;4993636;28;20599;-64
2021/03/08 00:40:25;;;;;;;4.15;0.77;;;0.90;99.90;;;;;;5003107;28;20057;-63
2021/03/08 00:42:52;;;;;;;3.15;0.65;;;0.90;99.90;;;;;;4999360;28;20148;-63
2021/03/08 00:45:20;;;;;;;2.58;0.65;;;0.90;99.90;;;;;;5000088;28;20576;-65
2021/03/08 00:47:54;;;;;;;2.58;0.82;;;0.90;99.90;;;;;;4995944;28;20062;-64
2021/03/08 00:50:25;;;;;;;2.70;0.77;;;0.90;99.90;;;;;;5003012;28;20042;-63
2021/03/08 00:52:52;;;;;;;0.63;0.38;;;0.90;99.90;;;;;;5000395;28;20060;-64
2021/03/08 00:55:18;;;;;;;4.43;1.92;;;0.90;99.90;;;;;;4999986;28;20560;-64
2021/03/08 00:57:47;;;;;;;1.63;0.68;;;0.80;99.90;;;;;;4996824;28;20518;-66
2021/03/08 01:00:20;;;;;;;4.20;1.08;;;0.90;99.90;;;;;;5000007;28;20038;-63
2021/03/08 01:02:51;;;;;;;3.53;0.50;;;0.90;99.90;;;;;;5000205;28;20070;-63
2021/03/08 01:05:23;;;;;;;3.22;0.50;;;0.90;99.90;;;;;;4998925;28;20049;-64
2021/03/08 01:07:51;;;;;;;0.45;0.22;;;0.80;99.90;;;;;;4997704;28;20141;-63
2021/03/08 01:10:26;;;;;;;1.55;0.95;;;0.80;99.90;;;;;;5000111;28;20171;-64
2021/03/08 01:12:53;;;;;;;1.65;0.73;;;0.80;99.90;;;;;;4998702;28;20077;-64
2021/03/08 01:15:20;;;;;;;1.00;0.30;;;0.90;99.90;;;;;;4999967;28;20728;-63
2021/03/08 01:17:50;;;;;;;2.13;0.85;;;0.90;99.90;;;;;;5004209;28;20093;-63
2021/03/08 01:20:19;;;;;;;1.92;0.52;;;0.80;99.90;;;;;;4997388;28;20597;-64
2021/03/08 01:22:47;;;;;;;4.53;0.90;;;0.80;99.90;;;;;;5002306;28;20505;-64
2021/03/08 01:25:23;;;;;;;0.93;0.50;;;0.80;99.90;;;;;;5001859;28;20096;-64
2021/03/08 01:27:51;;;;;;;1.27;0.50;;;0.80;99.90;;;;;;4997592;28;20422;-64
2021/03/08 01:30:20;;;;;;;2.17;1.15;;;0.80;99.90;;;;;;5000408;28;20069;-63
2021/03/08 01:32:47;;;;;;;1.07;0.60;;;0.80;99.90;;;;;;4999584;28;20054;-65
2021/03/08 01:35:13;;;;;;;1.52;1.20;;;0.80;99.90;;;;;;5001863;28;20041;-64
2021/03/08 01:37:40;;;;;;;3.70;1.23;;;0.80;99.90;;;;;;4998909;28;20501;-66
2021/03/08 01:40:12;;;;;;;4.25;1.17;;;0.80;99.90;;;;;;4997816;28;20148;-64
2021/03/08 01:42:41;;;;;;;2.60;0.75;;;0.80;99.90;;;;;;4999311;28;20042;-64
2021/03/08 01:45:13;;;;;;;1.83;0.93;;;0.80;99.90;;;;;;5001432;28;20077;-63
2021/03/08 01:47:41;;;;;;;2.22;0.80;;;0.80;99.90;;;;;;4998910;28;20064;-65
2021/03/08 01:50:13;;;;;;;1.67;1.10;;;0.80;99.90;;;;;;5001292;28;20141;-65
2021/03/08 01:52:40;;;;;;;1.90;0.47;;;0.80;99.90;;;;;;4996372;28;20054;-66
2021/03/08 01:55:08;;;;;;;0.95;0.45;;;0.80;99.90;;;;;;4999689;28;20157;-64
2021/03/08 01:57:35;;;;;;;2.15;0.57;;;0.80;99.90;;;;;;5001544;28;20453;-63
2021/03/08 02:00:20;;;;;;;2.78;0.73;;;0.80;99.90;;;;;;4994724;28;20223;-64
2021/03/08 02:02:47;;;;;;;1.63;0.50;;;0.70;99.90;;;;;;5000971;28;20551;-64
2021/03/08 02:05:16;;;;;;;2.60;0.63;;;0.70;99.90;;;;;;4998187;28;21900;-64
2021/03/08 02:07:43;;;;;;;5.05;0.77;;;0.80;99.90;;;;;;4997082;28;20045;-64
2021/03/08 02:10:11;;;;;;;3.88;1.70;;;0.70;99.90;;;;;;4999833;28;20046;-64
2021/03/08 02:12:48;;;;;;;4.63;0.80;;;0.80;99.90;;;;;;4999681;28;20050;-65
2021/03/08 02:15:36;;;;;;;2.67;0.60;;;0.70;99.90;;;;;;4998355;28;20058;-65
2021/03/08 02:18:17;;;;;;;2.67;0.80;;;0.70;99.90;;;;;;4997003;28;20038;-65
2021/03/08 02:20:57;;;;;;;3.90;0.70;;;0.70;99.90;;;;;;4994261;28;20046;-63
2021/03/08 02:24:01;;;;;;;4.72;0.93;;;0.70;99.90;;;;;;5000442;28;20063;-65
2021/03/08 02:26:31;;;;;;;3.67;1.00;;;0.80;99.90;;;;;;4998587;28;20054;-63
2021/03/08 02:29:05;;;;;;;2.40;0.45;;;0.80;99.90;;;;;;5000099;28;20078;-64
2021/03/08 02:31:32;;;;;;;7.20;1.25;;;0.80;99.90;;;;;;4999731;28;20050;-64
2021/03/08 02:34:10;;;;;;;3.13;0.63;;;0.80;99.90;;;;;;4998149;28;20105;-64
2021/03/08 02:36:41;;;;;;;1.95;0.70;;;0.80;99.90;;;;;;5000373;28;20061;-65
2021/03/08 02:39:12;;;;;;;2.70;1.23;;;0.80;99.90;;;;;;4996635;28;20062;-66
2021/03/08 02:41:41;;;;;;;1.52;0.30;;;0.80;99.90;;;;;;4994601;28;20050;-64
2021/03/08 02:44:12;;;;;;;2.63;0.73;;;0.70;99.90;;;;;;4998669;28;20054;-64
2021/03/08 02:46:42;;;;;;;2.90;0.63;;;0.70;99.90;;;;;;4996525;28;20084;-63
2021/03/08 02:49:22;;;;;;;2.55;0.90;;;0.70;99.90;;;;;;5005385;28;20066;-64
2021/03/08 02:51:59;;;;;;;2.50;0.50;;;0.70;99.90;;;;;;4986136;28;20137;-65
2021/03/08 02:54:30;;;;;;;3.00;0.88;;;0.70;99.90;;;;;;5001885;28;20119;-63
2021/03/08 02:57:01;;;;;;;4.70;1.27;;;0.70;99.90;;;;;;5003235;28;20054;-63
2021/03/08 02:59:31;;;;;;;3.83;0.68;;;0.70;99.90;;;;;;5001895;28;20092;-65
2021/03/08 03:02:00;;;;;;;1.75;0.70;;;0.70;99.90;;;;;;5001671;28;20041;-63
2021/03/08 03:04:27;;;;;;;1.95;0.73;;;0.60;99.90;;;;;;5005143;28;20556;-64
2021/03/08 03:06:54;;;;;;;4.35;0.80;;;0.60;99.90;;;;;;4998153;28;20038;-63
2021/03/08 03:09:22;;;;;;;1.95;0.88;;;0.60;99.90;;;;;;5003299;28;20065;-64
2021/03/08 03:11:54;;;;;;;1.77;0.77;;;0.70;99.90;;;;;;5002815;28;20046;-66
2021/03/08 03:14:22;;;;;;;2.70;0.32;;;0.70;99.90;;;;;;5001641;28;20054;-65
2021/03/08 03:16:54;;;;;;;3.08;0.98;;;0.70;99.90;;;;;;5002052;28;20108;-64
2021/03/08 03:19:22;;;;;;;1.42;0.52;;;0.60;99.90;;;;;;4998465;28;20049;-65
2021/03/08 03:21:51;;;;;;;3.83;0.75;;;0.60;99.90;;;;;;5000517;28;20504;-63
2021/03/08 03:24:17;;;;;;;4.50;0.73;;;0.60;99.90;;;;;;5003091;28;20089;-64
2021/03/08 03:26:44;;;;;;;2.90;0.60;;;0.60;99.90;;;;;;5001953;28;20049;-66
2021/03/08 03:29:13;;;;;;;4.88;0.80;;;0.60;99.90;;;;;;5003621;28;20056;-63
2021/03/08 03:31:41;;;;;;;2.75;0.93;;;0.60;99.90;;;;;;4999652;28;20529;-64
2021/03/08 03:34:09;;;;;;;2.70;0.63;;;0.60;99.90;;;;;;5003462;28;20065;-63
2021/03/08 03:36:39;;;;;;;4.32;0.70;;;0.60;99.90;;;;;;5000893;28;20147;-64
2021/03/08 03:39:09;;;;;;;2.53;0.85;;;0.60;99.90;;;;;;4997778;28;20053;-63
2021/03/08 03:41:36;;;;;;;2.63;0.47;;;0.60;99.90;;;;;;5000074;28;20058;-63
2021/03/08 03:44:03;;;;;;;7.55;1.00;;;0.60;99.90;;;;;;5000713;28;20053;-65
2021/03/08 03:46:29;;;;;;;3.55;1.15;;;0.60;99.90;;;;;;5002213;28;20049;-63
2021/03/08 03:48:56;;;;;;;1.85;0.68;;;0.60;99.90;;;;;;5002712;28;20058;-65
2021/03/08 03:51:23;;;;;;;5.47;1.10;;;0.50;99.90;;;;;;5002461;28;20132;-63
2021/03/08 03:53:49;;;;;;;4.20;0.50;;;0.50;99.90;;;;;;4999142;28;20755;-63
2021/03/08 03:56:21;;;;;;;3.13;0.60;;;0.50;99.90;;;;;;5001742;28;20149;-63
2021/03/08 03:58:53;;;;;;;3.55;0.82;;;0.50;99.90;;;;;;5001632;28;20061;-64
2021/03/08 04:01:23;;;;;;;3.75;0.75;;;0.60;99.90;;;;;;5002993;28;20065;-63
2021/03/08 04:04:02;;;;;;;10.35;3.03;;;0.50;99.90;;;;;;5001703;28;20385;-63
2021/03/08 04:06:36;;;;;;;18.42;1.25;;;0.50;99.90;;;;;;5000122;28;20049;-63
2021/03/08 04:09:04;;;;;;;4.05;0.60;;;0.40;99.90;;;;;;5003557;28;20120;-65
2021/03/08 04:11:33;;;;;;;0.98;0.50;;;0.40;99.90;;;;;;5001193;28;20456;-66
2021/03/08 04:14:02;;;;;;;3.83;0.88;;;0.40;99.90;;;;;;4997122;28;20149;-63
2021/03/08 04:16:35;;;;;;;2.28;0.60;;;0.30;99.90;;;;;;5001706;28;20045;-64
2021/03/08 04:19:04;;;;;;;3.13;0.70;;;0.30;99.90;;;;;;5000965;28;20081;-64
2021/03/08 04:21:36;;;;;;;1.65;0.70;;;0.30;99.90;;;;;;5001351;28;20104;-63
2021/03/08 04:24:05;;;;;;;1.98;0.88;;;0.30;99.90;;;;;;5002201;28;20841;-65
2021/03/08 04:26:31;;;;;;;1.38;0.77;;;0.30;99.90;;;;;;4998245;28;20123;-63
2021/03/08 04:28:59;;;;;;;7.03;0.85;;;0.30;99.90;;;;;;5001186;28;20060;-64
2021/03/08 04:31:26;;;;;;;2.83;0.63;;;0.20;99.90;;;;;;5003458;28;20068;-63
2021/03/08 04:33:53;;;;;;;4.40;1.35;;;0.30;99.90;;;;;;4996921;28;20050;-66
2021/03/08 04:36:21;;;;;;;2.40;0.95;;;0.30;99.90;;;;;;4999602;28;20153;-63
2021/03/08 04:38:47;;;;;;;0.88;0.40;;;0.40;99.90;;;;;;5001439;28;20086;-63
2021/03/08 04:41:14;;;;;;;2.88;0.50;;;0.40;99.90;;;;;;4998248;28;20513;-64
2021/03/08 04:43:42;;;;;;;1.02;0.57;;;0.40;99.90;;;;;;4997517;28;20140;-63
2021/03/08 04:46:09;;;;;;;2.15;0.60;;;0.30;99.90;;;;;;5003688;28;20057;-65
2021/03/08 04:48:36;;;;;;;4.50;1.13;;;0.40;99.90;;;;;;4999641;28;20095;-64
2021/03/08 04:51:08;;;;;;;4.85;1.48;;;0.40;99.90;;;;;;5002004;28;20108;-65
2021/03/08 04:53:35;;;;;;;1.00;0.77;;;0.30;99.90;;;;;;4994996;28;20061;-66
2021/03/08 04:56:03;;;;;;;3.35;0.90;;;0.30;99.90;;;;;;4999855;28;20536;-66
2021/03/08 04:58:33;;;;;;;2.75;0.70;;;0.30;99.90;;;;;;5001192;28;20148;-63
2021/03/08 05:01:00;;;;;;;5.10;0.75;;;0.30;99.90;;;;;;4997169;28;20065;-63
2021/03/08 05:03:28;;;;;;;2.58;0.82;;;0.30;99.90;;;;;;5000050;28;20839;-63
2021/03/08 05:06:00;;;;;;;2.47;1.25;;;0.40;99.90;;;;;;4995838;28;20151;-63
2021/03/08 05:08:28;;;;;;;5.22;1.17;;;0.40;99.90;;;;;;4998965;28;20313;-64
2021/03/08 05:10:56;;;;;;;1.63;0.70;;;0.40;99.90;;;;;;5001658;28;20062;-63
2021/03/08 05:13:24;;;;;;;2.30;0.82;;;0.40;99.90;;;;;;4998299;28;20141;-64
2021/03/08 05:15:53;;;;;;;3.72;1.02;;;0.40;99.90;;;;;;4997747;28;20061;-64
2021/03/08 05:18:23;;;;;;;4.55;1.40;;;0.40;99.90;;;;;;4997667;28;20049;-65
2021/03/08 05:20:50;;;;;;;5.45;0.80;;;0.30;99.90;;;;;;4999147;28;20053;-65
2021/03/08 05:23:17;;;;;;;1.10;0.93;;;0.20;99.90;;;;;;5002618;28;20145;-64
2021/03/08 05:25:45;;;;;;;4.93;1.25;;;0.20;99.90;;;;;;4996785;28;20144;-63
2021/03/08 05:28:12;;;;;;;3.65;1.00;;;0.30;99.90;;;;;;5000940;28;20073;-64
2021/03/08 05:30:39;;;;;;;2.38;0.70;;;0.20;99.90;;;;;;5002034;28;20474;-63
2021/03/08 05:33:09;;;;;;;1.30;1.02;;;0.30;99.90;;;;;;4996188;28;20057;-64
2021/03/08 05:35:37;;;;;;;3.85;0.90;;;0.20;99.90;;;;;;4995644;28;20096;-66
2021/03/08 05:38:05;;;;;;;3.03;0.43;;;0.20;99.90;;;;;;5001502;28;20100;-64
2021/03/08 05:40:52;;;;;;;3.15;0.52;;;0.30;99.90;;;;;;4997184;28;20053;-63
2021/03/08 05:43:22;;;;;;;2.90;1.35;;;0.30;99.90;;;;;;4997804;28;20059;-64
2021/03/08 05:46:08;;;;;;;0.80;0.68;;;0.30;99.90;;;;;;4997102;28;20152;-63
2021/03/08 05:49:00;;;;;;;2.25;1.08;;;0.30;99.90;;;;;;4996817;28;20053;-64
2021/03/08 05:52:04;;;;;;;1.38;0.57;;;0.30;99.90;;;;;;5002871;28;20049;-63
2021/03/08 05:54:55;;;;;;;2.88;1.33;;;0.40;99.90;;;;;;4998315;28;20108;-66
2021/03/08 05:57:33;;;;;;;1.42;1.10;;;0.40;99.90;;;;;;5001637;28;20116;-64
2021/03/08 06:00:08;;;;;;;1.30;0.60;;;0.40;99.90;;;;;;4997703;28;20069;-64
2021/03/08 06:02:46;;;;;;;7.97;3.28;;;0.40;99.90;;;;;;4997173;28;20038;-63
2021/03/08 06:06:00;;;;;;;9.23;2.67;;;0.40;99.90;;;;;;5000706;28;20410;-66
2021/03/08 06:08:26;;;;;;;18.30;3.10;;;0.40;99.90;;;;;;4982194;28;20797;-63
2021/03/08 06:11:12;;;;;;;15.00;2.85;;;0.30;99.90;;;;;;4999151;28;20410;-64
2021/03/08 06:13:46;;;;;;;2.03;0.98;;;0.40;99.90;;;;;;4999560;28;20069;-64
2021/03/08 06:16:23;;;;;;;4.55;1.25;;;0.40;99.90;;;;;;4998358;28;20042;-65
2021/03/08 06:18:52;;;;;;;5.20;1.05;;;0.30;99.90;;;;;;4997987;28;20057;-64
2021/03/08 06:21:19;;;;;;;1.35;0.60;;;0.30;99.90;;;;;;5001102;28;20096;-63
2021/03/08 06:23:46;;;;;;;2.08;1.00;;;0.30;99.90;;;;;;5002603;28;20066;-63
2021/03/08 06:26:13;;;;;;;1.92;0.80;;;0.30;99.90;;;;;;5002828;28;20053;-63
2021/03/08 06:28:41;;;;;;;5.85;1.30;;;0.30;99.90;;;;;;5002804;28;20057;-62
2021/03/08 06:31:08;;;;;;;4.45;1.02;;;0.30;99.90;;;;;;5002507;28;20414;-63
2021/03/08 06:33:51;;;;;;;4.45;1.30;;;0.30;99.90;;;;;;5001762;28;20042;-62
2021/03/08 06:36:19;;;;;;;8.65;0.70;;;0.30;99.90;;;;;;5004081;28;20437;-63
2021/03/08 06:38:46;;;;;;;4.68;0.70;;;0.30;99.90;;;;;;5002758;28;20045;-63
2021/03/08 06:41:12;;;;;;;1.77;0.93;;;0.30;99.90;;;;;;5000491;28;20049;-63
2021/03/08 06:43:40;;;;;;;5.93;1.70;;;0.30;99.90;;;;;;5000245;28;20600;-64
2021/03/08 06:46:07;;;;;;;9.07;0.85;;;0.30;99.90;;;;;;4999581;28;20482;-63
2021/03/08 06:48:34;;;;;;;4.55;1.05;;;0.30;99.90;;;;;;5002357;28;20905;-63
2021/03/08 06:51:15;;;;;;;6.97;1.00;;;0.30;99.90;;;;;;5002006;28;20065;-64
2021/03/08 06:53:43;;;;;;;2.35;0.93;;;0.30;99.90;;;;;;5000454;28;20111;-63
2021/03/08 06:56:20;;;;;;;3.55;1.75;;;0.30;99.90;;;;;;5002193;28;20115;-62
2021/03/08 06:59:08;;;;;;;6.00;1.30;;;0.40;99.90;;;;;;4996015;28;20512;-62
2021/03/08 07:01:36;;;;;;;1.60;0.50;;;0.40;99.90;;;;;;5001949;28;20049;-63
2021/03/08 07:04:22;;;;;;;4.40;1.20;;;0.40;99.90;;;;;;4998610;28;20054;-64
2021/03/08 07:07:02;;;;;;;4.00;0.95;;;0.30;99.90;;;;;;5005367;28;20077;-63
2021/03/08 07:09:29;;;;;;;3.42;0.82;;;0.30;99.90;;;;;;4999417;28;20050;-63
2021/03/08 07:12:09;;;;;;;3.30;1.30;;;0.30;99.90;;;;;;5000571;28;20066;-63
2021/03/08 07:14:37;;;;;;;4.80;1.85;;;0.30;99.90;;;;;;4999916;28;20050;-63
2021/03/08 07:17:29;;;;;;;7.60;1.40;;;0.40;99.90;;;;;;5001935;28;20046;-63
2021/03/08 07:19:57;;;;;;;3.13;1.42;;;0.40;99.90;;;;;;5002113;28;20046;-63
2021/03/08 07:22:45;;;;;;;3.90;1.10;;;0.50;99.90;;;;;;4994120;28;20066;-65
2021/03/08 07:25:27;;;;;;;8.88;1.73;;;0.50;99.90;;;;;;4982856;28;20048;-63
2021/03/08 07:28:04;;;;;;;7.68;1.05;;;0.40;99.90;;;;;;4995948;28;20137;-65
2021/03/08 07:30:38;;;;;;;5.40;1.25;;;0.50;99.90;;;;;;5000117;28;20038;-63
2021/03/08 07:33:11;;;;;;;4.28;0.93;;;0.50;99.90;;;;;;4998977;28;20045;-63
2021/03/08 07:35:45;;;;;;;5.82;1.80;;;0.50;99.90;;;;;;4999171;28;20552;-63
2021/03/08 07:38:14;;;;;;;3.08;0.85;;;0.50;99.90;;;;;;5001706;28;20516;-63
2021/03/08 07:40:43;;;;;;;4.40;1.15;;;0.50;99.90;;;;;;5000565;28;20058;-65
2021/03/08 07:43:21;;;;;;;3.30;0.70;;;0.50;99.90;;;;;;5001376;28;20458;-63
2021/03/08 07:45:48;;;;;;;13.05;2.10;;;0.50;99.90;;;;;;5000597;28;20057;-63
2021/03/08 07:48:20;;;;;;;4.00;1.65;;;0.60;99.90;;;;;;5000497;28;20112;-64
2021/03/08 07:50:48;;;;;;;10.05;1.50;;;0.60;99.90;;;;;;5001865;28;20299;-63
2021/03/08 07:53:27;;;;;;;5.75;1.60;;;0.60;99.90;;;;;;5003238;28;20107;-64
2021/03/08 07:55:55;;;;;;;2.70;1.55;;;0.60;99.90;;;;;;4995378;28;20061;-64
2021/03/08 07:58:25;;;;;;;5.35;1.05;;;0.60;99.90;;;;;;5000202;28;20393;-63
2021/03/08 08:00:51;;;;;;;11.50;1.83;;;0.60;99.90;;;;;;5001366;28;20042;-62
2021/03/08 08:03:19;;;;;;;5.35;1.02;;;0.60;99.90;;;;;;5001011;28;20135;-64
2021/03/08 08:05:48;;;;;;;2.78;0.88;;;0.60;99.90;;;;;;5001065;28;20149;-62
2021/03/08 08:08:15;;;;;;;2.92;1.00;;;0.60;99.90;;;;;;4997302;28;20092;-63
2021/03/08 08:10:42;;;;;;;6.78;1.83;;;0.60;99.90;;;;;;5001000;28;20109;-63
2021/03/08 08:13:11;;;;;;;4.90;2.78;;;0.60;99.90;;;;;;5001313;28;20073;-63
2021/03/08 08:15:42;;;;;;;3.63;0.98;;;0.60;99.90;;;;;;4997628;28;20599;-63
2021/03/08 08:18:13;;;;;;;2.92;0.80;;;0.60;99.90;;;;;;5002484;28;20116;-65
2021/03/08 08:20:40;;;;;;;4.22;0.90;;;0.70;99.90;;;;;;5000837;28;20105;-63
2021/03/08 08:23:07;;;;;;;2.40;0.90;;;0.70;99.90;;;;;;5000646;28;20528;-62
2021/03/08 08:25:36;;;;;;;4.82;1.45;;;0.70;99.90;;;;;;5000307;28;20064;-63
2021/03/08 08:28:03;;;;;;;4.28;1.17;;;0.70;99.90;;;;;;4996744;28;20061;-64
2021/03/08 08:30:30;;;;;;;3.67;0.90;;;0.60;99.90;;;;;;5000337;28;20462;-63
2021/03/08 08:32:58;;;;;;;4.93;1.45;;;0.70;99.90;;;;;;5001806;28;20065;-62
2021/03/08 08:35:34;;;;;;;1.33;0.50;;;0.70;99.90;;;;;;4999569;28;20066;-63
2021/03/08 08:38:06;;;;;;;2.05;1.10;;;0.60;99.90;;;;;;5000634;28;20085;-63
2021/03/08 08:40:35;;;;;;;7.30;2.22;;;0.60;99.90;;;;;;4996922;28;20050;-65
2021/03/08 08:43:16;;;;;;;3.05;0.70;;;0.70;99.90;;;;;;4997184;28;20041;-63
2021/03/08 08:45:45;;;;;;;6.05;1.20;;;0.90;99.90;;;;;;4997441;28;20068;-64
2021/03/08 08:48:11;;;;;;;1.40;0.73;;;1.10;99.90;;;;;;4998381;28;20045;-63
2021/03/08 08:50:44;;;;;;;9.75;1.50;;;1.20;99.90;;;;;;4999143;28;20130;-63
2021/03/08 08:53:11;;;;;;;5.00;1.42;;;0.90;99.90;;;;;;5002536;28;20046;-63
2021/03/08 08:55:38;;;;;;;4.45;1.25;;;0.60;99.90;;;;;;4995100;28;20046;-64
2021/03/08 08:58:17;;;;;;;0.90;0.73;;;0.50;99.90;;;;;;4997419;28;20113;-63
2021/03/08 09:01:03;;;;;;;3.00;0.90;;;0.50;99.90;;;;;;5000946;28;20164;-64
2021/03/08 09:03:59;;;;;;;1.17;0.50;;;0.60;99.90;;;;;;4999554;28;20066;-63
2021/03/08 09:06:54;;;;;;;2.25;0.75;;;0.60;99.90;;;;;;4997556;28;20675;-63
2021/03/08 09:09:23;;;;;;;1.90;1.02;;;0.70;99.90;;;;;;4997935;28;20136;-64
2021/03/08 09:11:56;;;;;;;1.58;0.93;;;0.80;99.90;;;;;;4995774;28;20049;-64
2021/03/08 09:14:33;;;;;;;2.63;0.90;;;0.90;99.90;;;;;;5000353;28;20432;-63
2021/03/08 09:17:22;;;;;;;7.32;0.80;;;1.00;99.90;;;;;;4998538;28;20061;-63
2021/03/08 09:19:55;;;;;;;1.33;0.63;;;1.00;99.90;;;;;;4999593;28;20050;-63
2021/03/08 09:22:30;;;;;;;2.85;0.70;;;1.10;99.90;;;;;;4999241;28;20045;-62
2021/03/08 09:24:58;;;;;;;2.35;0.63;;;1.00;99.90;;;;;;5000613;28;20631;-63
2021/03/08 09:27:27;;;;;;;1.60;1.20;;;1.00;99.90;;;;;;4999416;28;20065;-63
2021/03/08 09:30:00;;;;;;;9.75;2.30;;;0.90;99.90;;;;;;4997709;28;20794;-63
2021/03/08 09:32:27;;;;;;;3.90;1.30;;;0.80;99.90;;;;;;5000559;28;20628;-65
2021/03/08 09:35:08;;;;;;;2.05;0.85;;;0.90;99.90;;;;;;4995584;28;20060;-63
2021/03/08 09:37:35;;;;;;;4.07;1.10;;;0.90;99.90;;;;;;4998237;28;20186;-63
2021/03/08 09:40:04;;;;;;;0.95;0.73;;;1.10;99.90;;;;;;5000246;28;20054;-63
2021/03/08 09:42:35;;;;;;;3.22;1.05;;;1.20;99.90;;;;;;4997658;28;20100;-65
2021/03/08 09:45:18;;;;;;;2.28;0.98;;;1.30;99.90;;;;;;4993510;28;20181;-65
2021/03/08 09:47:45;;;;;;;4.93;0.93;;;1.20;99.90;;;;;;4996127;28;20127;-65
2021/03/08 09:50:33;;;;;;;3.20;0.93;;;1.00;99.90;;;;;;4999631;28;20185;-63
2021/03/08 09:53:00;;;;;;;4.95;1.17;;;1.00;99.90;;;;;;4998869;28;20139;-63
2021/03/08 09:55:33;;;;;;;4.78;1.10;;;1.00;99.90;;;;;;4997110;28;20780;-63
2021/03/08 09:58:15;;;;;;;5.35;1.58;;;1.00;99.90;;;;;;4999267;28;20560;-63
2021/03/08 10:00:43;;;;;;;2.10;1.00;;;1.10;99.90;;;;;;4998395;28;20579;-63
2021/03/08 10:03:11;;;;;;;5.85;0.68;;;1.10;99.90;;;;;;4997838;28;20191;-63
2021/03/08 10:05:46;;;;;;;7.63;2.03;;;1.00;99.90;;;;;;4996264;28;20078;-63
2021/03/08 10:08:15;;;;;;;4.38;0.95;;;1.00;99.90;;;;;;4996790;28;20069;-63
2021/03/08 10:10:44;;;;;;;1.45;0.82;;;0.90;99.90;;;;;;4996239;28;20065;-64
2021/03/08 10:13:12;;;;;;;1.58;0.70;;;0.90;99.90;;;;;;4998627;28;20058;-64
2021/03/08 10:15:43;;;;;;;3.30;1.35;;;0.90;99.90;;;;;;4996662;28;20460;-65
2021/03/08 10:18:10;;;;;;;4.28;0.98;;;0.90;99.90;;;;;;4998634;28;20817;-63
2021/03/08 10:20:55;;;;;;;3.35;1.38;;;1.00;99.90;;;;;;4998857;28;20054;-63
2021/03/08 10:23:43;;;;;;;1.90;1.33;;;1.10;99.90;;;;;;4994613;28;20634;-63
2021/03/08 10:26:18;;;;;;;2.97;1.13;;;1.10;99.90;;;;;;4997567;28;20128;-63
2021/03/08 10:28:50;;;;;;;17.20;2.10;;;1.20;99.90;;;;;;4997213;28;20153;-63
2021/03/08 10:31:22;;;;;;;1.30;0.90;;;1.20;99.90;;;;;;4997459;28;20049;-65
2021/03/08 10:33:52;;;;;;;5.50;1.40;;;1.10;99.90;;;;;;4995806;28;20062;-63
2021/03/08 10:36:20;;;;;;;5.00;1.45;;;1.10;99.90;;;;;;4995340;28;20112;-63
2021/03/08 10:38:58;;;;;;;3.63;0.68;;;1.00;99.90;;;;;;4998983;28;20057;-65
2021/03/08 10:41:30;;;;;;;2.13;0.75;;;0.90;99.90;;;;;;4994963;28;20061;-63
2021/03/08 10:43:58;;;;;;;3.08;1.17;;;1.00;99.90;;;;;;4996347;28;20053;-65
2021/03/08 10:46:32;;;;;;;4.63;1.02;;;1.30;99.90;;;;;;4998034;28;20393;-65
2021/03/08 10:48:58;;;;;;;8.68;1.65;;;1.40;99.90;;;;;;4996523;28;20049;-64
2021/03/08 10:51:26;;;;;;;4.53;1.13;;;1.40;99.90;;;;;;4996385;28;20088;-64
2021/03/08 10:53:58;;;;;;;1.67;0.68;;;1.50;99.90;;;;;;4994072;28;20423;-63
2021/03/08 10:56:28;;;;;;;2.22;1.02;;;1.60;99.90;;;;;;4976331;28;20054;-64
2021/03/08 10:58:56;;;;;;;1.63;0.85;;;1.60;99.90;;;;;;4979403;28;20105;-63
2021/03/08 11:01:24;;;;;;;7.57;1.88;;;1.50;99.90;;;;;;4989775;28;20045;-63
2021/03/08 11:03:52;;;;;;;4.50;1.80;;;1.50;99.90;;;;;;4994541;28;20088;-64
2021/03/08 11:06:21;;;;;;;7.40;2.03;;;1.60;99.90;;;;;;4998196;28;20069;-64
2021/03/08 11:09:01;;;;;;;7.53;1.17;;;1.60;99.90;;;;;;4998790;28;20046;-64
2021/03/08 11:11:31;;;;;;;4.80;1.05;;;1.60;99.90;;;;;;5000738;28;20390;-66
2021/03/08 11:13:59;;;;;;;9.88;1.50;;;1.50;99.90;;;;;;5001890;28;20053;-64
2021/03/08 11:16:26;;;;;;;4.18;1.30;;;1.40;99.90;;;;;;4999321;28;20495;-67
2021/03/08 11:18:53;;;;;;;7.45;1.10;;;1.30;99.90;;;;;;5001985;28;20064;-64
2021/03/08 11:21:28;;;;;;;9.02;1.35;;;1.40;99.90;;;;;;5003821;28;20060;-65
2021/03/08 11:24:14;;;;;;;1.77;0.80;;;1.60;99.90;;;;;;4996917;28;20141;-65
2021/03/08 11:26:42;;;;;;;5.50;1.60;;;1.60;99.90;;;;;;5004776;28;20125;-65
2021/03/08 11:29:23;;;;;;;5.25;1.67;;;1.60;99.90;;;;;;4994978;28;20058;-65
2021/03/08 11:31:54;;;;;;;6.50;1.92;;;1.60;99.90;;;;;;5000810;28;20052;-64
2021/03/08 11:34:38;;;;;;;2.35;1.38;;;1.40;99.90;;;;;;5000663;28;20084;-65
2021/03/08 11:37:10;;;;;;;7.45;1.63;;;1.30;99.90;;;;;;4999393;28;20073;-66
2021/03/08 11:39:39;;;;;;;8.45;1.20;;;1.40;99.90;;;;;;4996484;28;20185;-65
2021/03/08 11:42:06;;;;;;;3.25;1.67;;;1.40;99.90;;;;;;5001235;28;20045;-66
2021/03/08 11:44:33;;;;;;;3.22;0.90;;;1.30;99.90;;;;;;5001259;28;20057;-67
2021/03/08 11:46:59;;;;;;;9.25;3.92;;;1.30;99.90;;;;;;5000467;28;20053;-67
2021/03/08 11:49:26;;;;;;;7.78;0.85;;;1.30;99.90;;;;;;4999796;28;20054;-69
2021/03/08 11:51:53;;;;;;;7.32;1.13;;;1.30;99.90;;;;;;4999370;28;20164;-68
2021/03/08 11:54:19;;;;;;;6.60;2.10;;;1.20;99.90;;;;;;5000653;28;20049;-65
2021/03/08 11:56:46;;;;;;;5.68;0.80;;;1.30;99.90;;;;;;4998852;28;20050;-67
2021/03/08 11:59:13;;;;;;;4.63;1.02;;;1.30;99.90;;;;;;5001008;28;20437;-67
2021/03/08 12:01:39;;;;;;;11.23;1.95;;;1.30;99.90;;;;;;4998616;28;20598;-65
2021/03/08 12:04:06;;;;;;;5.47;1.90;;;1.20;99.90;;;;;;4998641;28;20159;-64
2021/03/08 12:06:32;;;;;;;5.40;1.15;;;1.30;99.90;;;;;;5000917;28;20058;-64
2021/03/08 12:09:00;;;;;;;3.95;0.80;;;1.30;99.90;;;;;;4997588;28;21543;-65
2021/03/08 12:11:27;;;;;;;5.18;1.38;;;1.30;99.90;;;;;;4998642;28;20078;-66
2021/03/08 12:13:53;;;;;;;2.80;1.50;;;1.40;99.90;;;;;;5002707;28;20143;-65
2021/03/08 12:16:20;;;;;;;15.73;1.70;;;1.50;99.90;;;;;;4999892;28;20045;-67
2021/03/08 12:18:47;;;;;;;10.25;1.10;;;1.70;99.90;;;;;;5000167;28;20057;-63
2021/03/08 12:21:14;;;;;;;3.40;0.88;;;1.80;99.90;;;;;;4994475;28;20073;-64
2021/03/08 12:23:40;;;;;;;4.13;0.90;;;2.00;99.90;;;;;;4997933;28;20092;-65
2021/03/08 12:26:08;;;;;;;1.45;0.90;;;2.00;99.90;;;;;;5002746;28;20061;-64
2021/03/08 12:28:34;;;;;;;2.33;0.63;;;1.90;99.90;;;;;;5001988;28;20140;-64
2021/03/08 12:31:15;;;;;;;1.70;1.08;;;1.80;99.90;;;;;;5000422;28;20054;-65
2021/03/08 12:33:42;;;;;;;9.35;1.80;;;1.70;99.90;;;;;;4998899;28;20060;-64
2021/03/08 12:36:09;;;;;;;5.07;1.00;;;1.60;99.90;;;;;;4998987;28;20580;-65
2021/03/08 12:38:43;;;;;;;12.57;1.75;;;1.50;99.90;;;;;;5001084;28;20056;-65
2021/03/08 12:41:10;;;;;;;6.43;1.08;;;1.60;99.90;;;;;;4999730;28;20141;-65
2021/03/08 12:43:37;;;;;;;5.20;1.20;;;1.70;99.90;;;;;;4996443;28;20714;-64
2021/03/08 12:46:04;;;;;;;2.22;0.75;;;1.70;99.90;;;;;;4999846;28;20042;-67
2021/03/08 12:48:30;;;;;;;1.65;1.00;;;1.60;99.90;;;;;;5000524;28;20072;-64
2021/03/08 12:50:57;;;;;;;3.40;1.10;;;1.60;99.90;;;;;;4998862;28;20062;-64
2021/03/08 12:53:23;;;;;;;9.10;1.85;;;1.70;99.90;;;;;;4995966;28;20510;-64
2021/03/08 12:55:50;;;;;;;5.25;1.17;;;1.60;99.90;;;;;;4997272;28;20058;-64
2021/03/08 12:58:16;;;;;;;6.18;1.40;;;1.50;99.90;;;;;;4997595;28;20042;-64
2021/03/08 13:00:43;;;;;;;3.28;1.27;;;1.40;99.90;;;;;;4999767;28;20049;-66
2021/03/08 13:03:10;;;;;;;8.48;0.80;;;1.40;99.90;;;;;;4998011;28;20088;-64
2021/03/08 13:05:36;;;;;;;3.78;0.73;;;1.40;99.90;;;;;;4997742;28;20564;-64
2021/03/08 13:08:03;;;;;;;2.42;0.70;;;1.50;99.90;;;;;;4999978;28;20058;-64
2021/03/08 13:10:31;;;;;;;11.38;1.60;;;1.60;99.90;;;;;;4997644;28;20125;-64
2021/03/08 13:12:58;;;;;;;6.57;1.35;;;1.70;99.90;;;;;;4998509;28;20049;-64
2021/03/08 13:15:24;;;;;;;6.53;0.90;;;2.00;99.90;;;;;;4997587;28;20111;-66
2021/03/08 13:17:52;;;;;;;2.65;1.05;;;2.00;99.90;;;;;;4995584;28;20088;-64